sensor_id;sensor_type;location;lat;lon;timestamp;P1;durP1;ratioP1;P2;durP2;ratioP2
19788;SDS011;10054;59.332;18.244;2023-06-04T00:01:56;2.90;;;1.90;;
19788;SDS011;10054;59.332;18.244;2023-06-04T00:04:25;1.67;;;1.57;;
19788;SDS011;10054;59.332;18.244;2023-06-04T00:06:54;2.20;;;1.70;;
19788;SDS011;10054;59.332;18.244;2023-06-04T00:09:23;1.90;;;1.60;;
19788;SDS011;10054;59.332;18.244;2023-06-04T00:11:52;1.70;;;1.60;;
19788;SDS011;10054;59.332;18.244;2023-06-04T00:14:21;1.67;;;1.57;;
19788;SDS011;10054;59.332;18.244;2023-06-04T00:16:51;1.90;;;1.60;;
19788;SDS011;10054;59.332;18.244;2023-06-04T00:19:19;1.60;;;1.50;;
19788;SDS011;10054;59.332;18.244;2023-06-04T00:21:48;2.27;;;1.87;;
19788;SDS011;10054;59.332;18.244;2023-06-04T00:24:17;2.60;;;1.40;;
19788;SDS011;10054;59.332;18.244;2023-06-04T00:26:46;1.83;;;1.73;;
19788;SDS011;10054;59.332;18.244;2023-06-04T00:29:15;1.60;;;1.50;;
19788;SDS011;10054;59.332;18.244;2023-06-04T00:31:44;1.80;;;1.60;;
19788;SDS011;10054;59.332;18.244;2023-06-04T00:34:13;2.20;;;1.50;;
19788;SDS011;10054;59.332;18.244;2023-06-04T00:36:42;1.70;;;1.60;;
19788;SDS011;10054;59.332;18.244;2023-06-04T00:39:11;2.93;;;1.77;;
19788;SDS011;10054;59.332;18.244;2023-06-04T00:41:41;1.77;;;1.60;;
19788;SDS011;10054;59.332;18.244;2023-06-04T00:44:10;2.20;;;1.70;;
19788;SDS011;10054;59.332;18.244;2023-06-04T00:46:38;1.90;;;1.80;;
19788;SDS011;10054;59.332;18.244;2023-06-04T00:49:07;1.90;;;1.70;;
19788;SDS011;10054;59.332;18.244;2023-06-04T00:51:38;1.70;;;1.43;;
19788;SDS011;10054;59.332;18.244;2023-06-04T00:54:07;2.47;;;1.70;;
19788;SDS011;10054;59.332;18.244;2023-06-04T00:56:36;1.60;;;1.50;;
19788;SDS011;10054;59.332;18.244;2023-06-04T00:59:08;2.97;;;1.50;;
19788;SDS011;10054;59.332;18.244;2023-06-04T01:01:40;1.50;;;1.40;;
19788;SDS011;10054;59.332;18.244;2023-06-04T01:04:11;1.70;;;1.60;;
19788;SDS011;10054;59.332;18.244;2023-06-04T01:06:47;1.70;;;1.60;;
19788;SDS011;10054;59.332;18.244;2023-06-04T01:09:11;1.60;;;1.50;;
19788;SDS011;10054;59.332;18.244;2023-06-04T01:11:41;1.53;;;1.43;;
19788;SDS011;10054;59.332;18.244;2023-06-04T01:14:10;1.70;;;1.60;;
19788;SDS011;10054;59.332;18.244;2023-06-04T01:16:42;1.47;;;1.37;;
19788;SDS011;10054;59.332;18.244;2023-06-04T01:19:22;1.50;;;1.37;;
19788;SDS011;10054;59.332;18.244;2023-06-04T01:21:48;1.70;;;1.37;;
19788;SDS011;10054;59.332;18.244;2023-06-04T01:24:17;1.40;;;1.23;;
19788;SDS011;10054;59.332;18.244;2023-06-04T01:26:50;1.30;;;1.13;;
19788;SDS011;10054;59.332;18.244;2023-06-04T01:29:21;2.47;;;1.40;;
19788;SDS011;10054;59.332;18.244;2023-06-04T01:31:51;1.60;;;1.50;;
19788;SDS011;10054;59.332;18.244;2023-06-04T01:34:21;1.50;;;1.40;;
19788;SDS011;10054;59.332;18.244;2023-06-04T01:36:50;1.37;;;1.07;;
19788;SDS011;10054;59.332;18.244;2023-06-04T01:39:19;1.10;;;1.10;;
19788;SDS011;10054;59.332;18.244;2023-06-04T01:41:49;1.40;;;1.30;;
19788;SDS011;10054;59.332;18.244;2023-06-04T01:44:18;1.20;;;1.10;;
19788;SDS011;10054;59.332;18.244;2023-06-04T01:46:47;2.33;;;1.40;;
19788;SDS011;10054;59.332;18.244;2023-06-04T01:49:16;3.23;;;1.53;;
19788;SDS011;10054;59.332;18.244;2023-06-04T01:51:45;1.23;;;1.13;;
19788;SDS011;10054;59.332;18.244;2023-06-04T01:54:14;2.70;;;1.20;;
19788;SDS011;10054;59.332;18.244;2023-06-04T01:56:43;1.50;;;1.40;;
19788;SDS011;10054;59.332;18.244;2023-06-04T01:59:13;1.50;;;1.40;;
19788;SDS011;10054;59.332;18.244;2023-06-04T02:01:42;1.60;;;1.20;;
19788;SDS011;10054;59.332;18.244;2023-06-04T02:04:11;1.37;;;1.27;;
19788;SDS011;10054;59.332;18.244;2023-06-04T02:06:40;2.30;;;1.30;;
19788;SDS011;10054;59.332;18.244;2023-06-04T02:09:09;1.27;;;1.17;;
19788;SDS011;10054;59.332;18.244;2023-06-04T02:11:38;1.30;;;1.20;;
19788;SDS011;10054;59.332;18.244;2023-06-04T02:14:08;1.10;;;1.10;;
19788;SDS011;10054;59.332;18.244;2023-06-04T02:16:37;1.20;;;1.10;;
19788;SDS011;10054;59.332;18.244;2023-06-04T02:19:06;1.30;;;1.20;;
19788;SDS011;10054;59.332;18.244;2023-06-04T02:21:34;1.63;;;1.30;;
19788;SDS011;10054;59.332;18.244;2023-06-04T02:24:03;2.30;;;1.10;;
19788;SDS011;10054;59.332;18.244;2023-06-04T02:26:32;1.50;;;1.30;;
19788;SDS011;10054;59.332;18.244;2023-06-04T02:29:01;1.53;;;1.43;;
19788;SDS011;10054;59.332;18.244;2023-06-04T02:31:30;1.83;;;1.00;;
19788;SDS011;10054;59.332;18.244;2023-06-04T02:33:58;1.10;;;1.10;;
19788;SDS011;10054;59.332;18.244;2023-06-04T02:36:28;1.10;;;1.10;;
19788;SDS011;10054;59.332;18.244;2023-06-04T02:38:57;1.13;;;0.90;;
19788;SDS011;10054;59.332;18.244;2023-06-04T02:41:27;1.53;;;1.00;;
19788;SDS011;10054;59.332;18.244;2023-06-04T02:43:56;0.90;;;0.90;;
19788;SDS011;10054;59.332;18.244;2023-06-04T02:46:25;1.17;;;1.00;;
19788;SDS011;10054;59.332;18.244;2023-06-04T02:48:54;1.60;;;0.70;;
19788;SDS011;10054;59.332;18.244;2023-06-04T02:51:23;1.10;;;1.00;;
19788;SDS011;10054;59.332;18.244;2023-06-04T02:53:52;1.20;;;1.10;;
19788;SDS011;10054;59.332;18.244;2023-06-04T02:56:21;1.33;;;1.13;;
19788;SDS011;10054;59.332;18.244;2023-06-04T02:58:51;1.00;;;1.00;;
19788;SDS011;10054;59.332;18.244;2023-06-04T03:01:23;2.20;;;1.17;;
19788;SDS011;10054;59.332;18.244;2023-06-04T03:03:54;1.10;;;1.00;;
19788;SDS011;10054;59.332;18.244;2023-06-04T03:06:24;1.03;;;1.03;;
19788;SDS011;10054;59.332;18.244;2023-06-04T03:08:53;1.20;;;1.10;;
19788;SDS011;10054;59.332;18.244;2023-06-04T03:11:22;1.10;;;1.10;;
19788;SDS011;10054;59.332;18.244;2023-06-04T03:13:51;1.20;;;1.10;;
19788;SDS011;10054;59.332;18.244;2023-06-04T03:16:20;1.30;;;1.20;;
19788;SDS011;10054;59.332;18.244;2023-06-04T03:18:49;1.37;;;1.27;;
19788;SDS011;10054;59.332;18.244;2023-06-04T03:21:18;1.23;;;1.10;;
19788;SDS011;10054;59.332;18.244;2023-06-04T03:23:47;0.80;;;0.80;;
19788;SDS011;10054;59.332;18.244;2023-06-04T03:26:17;0.80;;;0.80;;
19788;SDS011;10054;59.332;18.244;2023-06-04T03:28:45;0.90;;;0.80;;
19788;SDS011;10054;59.332;18.244;2023-06-04T03:31:16;0.70;;;0.70;;
19788;SDS011;10054;59.332;18.244;2023-06-04T03:33:45;1.13;;;0.80;;
19788;SDS011;10054;59.332;18.244;2023-06-04T03:36:15;1.03;;;0.70;;
19788;SDS011;10054;59.332;18.244;2023-06-04T03:38:45;1.00;;;0.80;;
19788;SDS011;10054;59.332;18.244;2023-06-04T03:41:14;0.70;;;0.70;;
19788;SDS011;10054;59.332;18.244;2023-06-04T03:43:43;1.03;;;0.80;;
19788;SDS011;10054;59.332;18.244;2023-06-04T03:46:13;0.87;;;0.80;;
19788;SDS011;10054;59.332;18.244;2023-06-04T03:48:41;0.70;;;0.70;;
19788;SDS011;10054;59.332;18.244;2023-06-04T03:51:11;1.30;;;0.60;;
19788;SDS011;10054;59.332;18.244;2023-06-04T03:53:41;0.60;;;0.60;;
19788;SDS011;10054;59.332;18.244;2023-06-04T03:56:10;0.70;;;0.70;;
19788;SDS011;10054;59.332;18.244;2023-06-04T03:58:40;0.60;;;0.60;;
19788;SDS011;10054;59.332;18.244;2023-06-04T04:01:09;1.60;;;0.80;;
19788;SDS011;10054;59.332;18.244;2023-06-04T04:03:39;0.80;;;0.57;;
19788;SDS011;10054;59.332;18.244;2023-06-04T04:06:09;0.60;;;0.60;;
19788;SDS011;10054;59.332;18.244;2023-06-04T04:08:39;2.40;;;0.70;;
19788;SDS011;10054;59.332;18.244;2023-06-04T04:11:10;0.60;;;0.60;;
19788;SDS011;10054;59.332;18.244;2023-06-04T04:13:46;0.60;;;0.60;;
19788;SDS011;10054;59.332;18.244;2023-06-04T04:16:16;0.93;;;0.70;;
19788;SDS011;10054;59.332;18.244;2023-06-04T04:18:45;0.70;;;0.70;;
19788;SDS011;10054;59.332;18.244;2023-06-04T04:21:14;0.60;;;0.60;;
19788;SDS011;10054;59.332;18.244;2023-06-04T04:23:44;0.57;;;0.57;;
19788;SDS011;10054;59.332;18.244;2023-06-04T04:26:13;0.70;;;0.70;;
19788;SDS011;10054;59.332;18.244;2023-06-04T04:28:45;1.03;;;0.60;;
19788;SDS011;10054;59.332;18.244;2023-06-04T04:31:14;1.13;;;0.70;;
19788;SDS011;10054;59.332;18.244;2023-06-04T04:33:44;0.63;;;0.60;;
19788;SDS011;10054;59.332;18.244;2023-06-04T04:36:14;2.30;;;0.50;;
19788;SDS011;10054;59.332;18.244;2023-06-04T04:38:46;0.77;;;0.73;;
19788;SDS011;10054;59.332;18.244;2023-06-04T04:41:18;1.70;;;0.70;;
19788;SDS011;10054;59.332;18.244;2023-06-04T04:43:54;0.60;;;0.60;;
19788;SDS011;10054;59.332;18.244;2023-06-04T04:46:25;0.57;;;0.57;;
19788;SDS011;10054;59.332;18.244;2023-06-04T04:48:54;6.40;;;0.70;;
19788;SDS011;10054;59.332;18.244;2023-06-04T04:51:23;0.40;;;0.40;;
19788;SDS011;10054;59.332;18.244;2023-06-04T04:53:53;1.10;;;0.50;;
19788;SDS011;10054;59.332;18.244;2023-06-04T04:56:22;1.20;;;0.77;;
19788;SDS011;10054;59.332;18.244;2023-06-04T04:58:52;4.83;;;0.60;;
19788;SDS011;10054;59.332;18.244;2023-06-04T05:01:22;1.33;;;0.70;;
19788;SDS011;10054;59.332;18.244;2023-06-04T05:03:52;0.87;;;0.60;;
19788;SDS011;10054;59.332;18.244;2023-06-04T05:06:22;0.70;;;0.70;;
19788;SDS011;10054;59.332;18.244;2023-06-04T05:08:51;0.80;;;0.60;;
19788;SDS011;10054;59.332;18.244;2023-06-04T05:11:20;1.70;;;0.73;;
19788;SDS011;10054;59.332;18.244;2023-06-04T05:13:49;0.77;;;0.70;;
19788;SDS011;10054;59.332;18.244;2023-06-04T05:16:18;1.13;;;0.50;;
19788;SDS011;10054;59.332;18.244;2023-06-04T05:18:49;0.77;;;0.70;;
19788;SDS011;10054;59.332;18.244;2023-06-04T05:21:20;1.97;;;0.70;;
19788;SDS011;10054;59.332;18.244;2023-06-04T05:23:50;0.60;;;0.50;;
19788;SDS011;10054;59.332;18.244;2023-06-04T05:26:20;0.50;;;0.50;;
19788;SDS011;10054;59.332;18.244;2023-06-04T05:28:51;0.60;;;0.60;;
19788;SDS011;10054;59.332;18.244;2023-06-04T05:31:20;0.50;;;0.50;;
19788;SDS011;10054;59.332;18.244;2023-06-04T05:33:51;0.60;;;0.60;;
19788;SDS011;10054;59.332;18.244;2023-06-04T05:36:21;0.57;;;0.57;;
19788;SDS011;10054;59.332;18.244;2023-06-04T05:38:51;0.87;;;0.60;;
19788;SDS011;10054;59.332;18.244;2023-06-04T05:41:28;0.50;;;0.50;;
19788;SDS011;10054;59.332;18.244;2023-06-04T05:43:57;1.07;;;0.70;;
19788;SDS011;10054;59.332;18.244;2023-06-04T05:46:27;0.57;;;0.50;;
19788;SDS011;10054;59.332;18.244;2023-06-04T05:48:56;0.40;;;0.40;;
19788;SDS011;10054;59.332;18.244;2023-06-04T05:51:25;0.40;;;0.40;;
19788;SDS011;10054;59.332;18.244;2023-06-04T05:53:54;0.40;;;0.40;;
19788;SDS011;10054;59.332;18.244;2023-06-04T05:56:23;0.50;;;0.50;;
19788;SDS011;10054;59.332;18.244;2023-06-04T05:58:53;2.73;;;0.40;;
19788;SDS011;10054;59.332;18.244;2023-06-04T06:01:23;0.73;;;0.50;;
19788;SDS011;10054;59.332;18.244;2023-06-04T06:03:52;0.47;;;0.40;;
19788;SDS011;10054;59.332;18.244;2023-06-04T06:06:23;0.80;;;0.40;;
19788;SDS011;10054;59.332;18.244;2023-06-04T06:08:52;0.43;;;0.37;;
19788;SDS011;10054;59.332;18.244;2023-06-04T06:11:21;0.50;;;0.40;;
19788;SDS011;10054;59.332;18.244;2023-06-04T06:13:51;0.40;;;0.40;;
19788;SDS011;10054;59.332;18.244;2023-06-04T06:16:21;1.23;;;0.50;;
19788;SDS011;10054;59.332;18.244;2023-06-04T06:18:50;0.60;;;0.60;;
19788;SDS011;10054;59.332;18.244;2023-06-04T06:21:21;0.40;;;0.40;;
19788;SDS011;10054;59.332;18.244;2023-06-04T06:23:50;0.50;;;0.50;;
19788;SDS011;10054;59.332;18.244;2023-06-04T06:26:19;0.53;;;0.40;;
19788;SDS011;10054;59.332;18.244;2023-06-04T06:28:51;0.37;;;0.37;;
19788;SDS011;10054;59.332;18.244;2023-06-04T06:31:20;0.40;;;0.40;;
19788;SDS011;10054;59.332;18.244;2023-06-04T06:33:48;0.43;;;0.43;;
19788;SDS011;10054;59.332;18.244;2023-06-04T06:36:17;0.70;;;0.50;;
19788;SDS011;10054;59.332;18.244;2023-06-04T06:38:46;0.40;;;0.40;;
19788;SDS011;10054;59.332;18.244;2023-06-04T06:41:15;0.40;;;0.40;;
19788;SDS011;10054;59.332;18.244;2023-06-04T06:43:46;0.40;;;0.40;;
19788;SDS011;10054;59.332;18.244;2023-06-04T06:46:15;0.60;;;0.40;;
19788;SDS011;10054;59.332;18.244;2023-06-04T06:48:44;0.40;;;0.40;;
19788;SDS011;10054;59.332;18.244;2023-06-04T06:51:13;0.30;;;0.30;;
19788;SDS011;10054;59.332;18.244;2023-06-04T06:53:42;0.40;;;0.40;;
19788;SDS011;10054;59.332;18.244;2023-06-04T06:56:13;0.30;;;0.30;;
19788;SDS011;10054;59.332;18.244;2023-06-04T06:58:42;0.37;;;0.33;;
19788;SDS011;10054;59.332;18.244;2023-06-04T07:01:11;0.30;;;0.30;;
19788;SDS011;10054;59.332;18.244;2023-06-04T07:03:40;0.67;;;0.33;;
19788;SDS011;10054;59.332;18.244;2023-06-04T07:06:10;0.57;;;0.57;;
19788;SDS011;10054;59.332;18.244;2023-06-04T07:08:39;0.40;;;0.40;;
19788;SDS011;10054;59.332;18.244;2023-06-04T07:11:08;0.70;;;0.40;;
19788;SDS011;10054;59.332;18.244;2023-06-04T07:13:40;0.30;;;0.30;;
19788;SDS011;10054;59.332;18.244;2023-06-04T07:16:09;0.30;;;0.30;;
19788;SDS011;10054;59.332;18.244;2023-06-04T07:18:38;0.30;;;0.30;;
19788;SDS011;10054;59.332;18.244;2023-06-04T07:21:07;0.47;;;0.47;;
19788;SDS011;10054;59.332;18.244;2023-06-04T07:23:35;1.60;;;0.47;;
19788;SDS011;10054;59.332;18.244;2023-06-04T07:26:04;1.73;;;0.50;;
19788;SDS011;10054;59.332;18.244;2023-06-04T07:28:33;1.90;;;0.50;;
19788;SDS011;10054;59.332;18.244;2023-06-04T07:31:02;0.93;;;0.50;;
19788;SDS011;10054;59.332;18.244;2023-06-04T07:33:31;0.40;;;0.40;;
19788;SDS011;10054;59.332;18.244;2023-06-04T07:36:00;0.40;;;0.40;;
19788;SDS011;10054;59.332;18.244;2023-06-04T07:38:29;0.40;;;0.40;;
19788;SDS011;10054;59.332;18.244;2023-06-04T07:40:58;0.50;;;0.50;;
19788;SDS011;10054;59.332;18.244;2023-06-04T07:43:26;0.50;;;0.50;;
19788;SDS011;10054;59.332;18.244;2023-06-04T07:45:56;0.40;;;0.40;;
19788;SDS011;10054;59.332;18.244;2023-06-04T07:48:25;0.40;;;0.40;;
19788;SDS011;10054;59.332;18.244;2023-06-04T07:51:02;0.40;;;0.40;;
19788;SDS011;10054;59.332;18.244;2023-06-04T07:53:27;0.50;;;0.50;;
19788;SDS011;10054;59.332;18.244;2023-06-04T07:55:56;0.50;;;0.50;;
19788;SDS011;10054;59.332;18.244;2023-06-04T07:58:25;0.63;;;0.53;;
19788;SDS011;10054;59.332;18.244;2023-06-04T08:00:54;0.93;;;0.50;;
19788;SDS011;10054;59.332;18.244;2023-06-04T08:03:22;0.30;;;0.30;;
19788;SDS011;10054;59.332;18.244;2023-06-04T08:05:51;0.40;;;0.40;;
19788;SDS011;10054;59.332;18.244;2023-06-04T08:08:20;0.53;;;0.50;;
19788;SDS011;10054;59.332;18.244;2023-06-04T08:10:53;0.40;;;0.40;;
19788;SDS011;10054;59.332;18.244;2023-06-04T08:13:22;0.50;;;0.50;;
19788;SDS011;10054;59.332;18.244;2023-06-04T08:15:50;0.40;;;0.40;;
19788;SDS011;10054;59.332;18.244;2023-06-04T08:18:19;0.40;;;0.40;;
19788;SDS011;10054;59.332;18.244;2023-06-04T08:20:48;0.50;;;0.50;;
19788;SDS011;10054;59.332;18.244;2023-06-04T08:23:17;0.50;;;0.40;;
19788;SDS011;10054;59.332;18.244;2023-06-04T08:25:46;0.40;;;0.40;;
19788;SDS011;10054;59.332;18.244;2023-06-04T08:28:15;1.20;;;0.47;;
19788;SDS011;10054;59.332;18.244;2023-06-04T08:30:45;0.40;;;0.40;;
19788;SDS011;10054;59.332;18.244;2023-06-04T08:33:14;0.50;;;0.50;;
19788;SDS011;10054;59.332;18.244;2023-06-04T08:35:43;0.40;;;0.40;;
19788;SDS011;10054;59.332;18.244;2023-06-04T08:38:11;0.57;;;0.40;;
19788;SDS011;10054;59.332;18.244;2023-06-04T08:40:40;0.40;;;0.40;;
19788;SDS011;10054;59.332;18.244;2023-06-04T08:43:10;0.50;;;0.50;;
19788;SDS011;10054;59.332;18.244;2023-06-04T08:45:39;0.40;;;0.40;;
19788;SDS011;10054;59.332;18.244;2023-06-04T08:48:09;0.40;;;0.40;;
19788;SDS011;10054;59.332;18.244;2023-06-04T08:50:39;0.43;;;0.43;;
19788;SDS011;10054;59.332;18.244;2023-06-04T08:53:11;0.40;;;0.40;;
19788;SDS011;10054;59.332;18.244;2023-06-04T08:55:41;0.50;;;0.50;;
19788;SDS011;10054;59.332;18.244;2023-06-04T08:58:10;1.23;;;0.50;;
19788;SDS011;10054;59.332;18.244;2023-06-04T09:00:41;0.60;;;0.60;;
19788;SDS011;10054;59.332;18.244;2023-06-04T09:03:10;0.80;;;0.50;;
19788;SDS011;10054;59.332;18.244;2023-06-04T09:05:40;1.67;;;0.53;;
19788;SDS011;10054;59.332;18.244;2023-06-04T09:08:16;0.50;;;0.50;;
19788;SDS011;10054;59.332;18.244;2023-06-04T09:10:48;0.50;;;0.50;;
19788;SDS011;10054;59.332;18.244;2023-06-04T09:13:18;0.40;;;0.40;;
19788;SDS011;10054;59.332;18.244;2023-06-04T09:15:58;0.40;;;0.40;;
19788;SDS011;10054;59.332;18.244;2023-06-04T09:18:28;0.93;;;0.50;;
19788;SDS011;10054;59.332;18.244;2023-06-04T09:21:01;0.40;;;0.40;;
19788;SDS011;10054;59.332;18.244;2023-06-04T09:23:51;0.40;;;0.40;;
19788;SDS011;10054;59.332;18.244;2023-06-04T09:26:12;0.40;;;0.40;;
19788;SDS011;10054;59.332;18.244;2023-06-04T09:28:41;2.47;;;0.60;;
19788;SDS011;10054;59.332;18.244;2023-06-04T09:31:13;0.40;;;0.40;;
19788;SDS011;10054;59.332;18.244;2023-06-04T09:33:44;1.03;;;0.50;;
19788;SDS011;10054;59.332;18.244;2023-06-04T09:36:15;0.50;;;0.50;;
19788;SDS011;10054;59.332;18.244;2023-06-04T09:38:45;0.50;;;0.50;;
19788;SDS011;10054;59.332;18.244;2023-06-04T09:41:18;3.13;;;0.50;;
19788;SDS011;10054;59.332;18.244;2023-06-04T09:43:48;0.47;;;0.47;;
19788;SDS011;10054;59.332;18.244;2023-06-04T09:46:17;0.50;;;0.50;;
19788;SDS011;10054;59.332;18.244;2023-06-04T09:48:46;0.47;;;0.47;;
19788;SDS011;10054;59.332;18.244;2023-06-04T09:51:15;1.10;;;0.50;;
19788;SDS011;10054;59.332;18.244;2023-06-04T09:53:55;0.60;;;0.60;;
19788;SDS011;10054;59.332;18.244;2023-06-04T09:56:25;0.60;;;0.60;;
19788;SDS011;10054;59.332;18.244;2023-06-04T09:58:56;0.50;;;0.50;;
19788;SDS011;10054;59.332;18.244;2023-06-04T10:01:29;0.40;;;0.40;;
19788;SDS011;10054;59.332;18.244;2023-06-04T10:04:02;0.40;;;0.40;;
19788;SDS011;10054;59.332;18.244;2023-06-04T10:06:32;0.50;;;0.50;;
19788;SDS011;10054;59.332;18.244;2023-06-04T10:09:08;0.50;;;0.50;;
19788;SDS011;10054;59.332;18.244;2023-06-04T10:11:40;0.33;;;0.33;;
19788;SDS011;10054;59.332;18.244;2023-06-04T10:16:44;0.53;;;0.53;;
19788;SDS011;10054;59.332;18.244;2023-06-04T10:19:13;0.53;;;0.53;;
19788;SDS011;10054;59.332;18.244;2023-06-04T10:21:43;0.50;;;0.50;;
19788;SDS011;10054;59.332;18.244;2023-06-04T10:24:13;1.33;;;0.60;;
19788;SDS011;10054;59.332;18.244;2023-06-04T10:26:43;0.70;;;0.70;;
19788;SDS011;10054;59.332;18.244;2023-06-04T10:29:12;1.70;;;0.60;;
19788;SDS011;10054;59.332;18.244;2023-06-04T10:31:42;0.50;;;0.50;;
19788;SDS011;10054;59.332;18.244;2023-06-04T10:34:11;0.97;;;0.60;;
19788;SDS011;10054;59.332;18.244;2023-06-04T10:36:44;0.57;;;0.57;;
19788;SDS011;10054;59.332;18.244;2023-06-04T10:39:12;0.40;;;0.40;;
19788;SDS011;10054;59.332;18.244;2023-06-04T10:41:42;0.50;;;0.50;;
19788;SDS011;10054;59.332;18.244;2023-06-04T10:44:12;0.40;;;0.40;;
19788;SDS011;10054;59.332;18.244;2023-06-04T10:46:41;0.53;;;0.53;;
19788;SDS011;10054;59.332;18.244;2023-06-04T10:49:10;1.17;;;0.60;;
19788;SDS011;10054;59.332;18.244;2023-06-04T10:51:41;0.60;;;0.60;;
19788;SDS011;10054;59.332;18.244;2023-06-04T10:54:10;0.50;;;0.50;;
19788;SDS011;10054;59.332;18.244;2023-06-04T10:56:40;2.13;;;0.50;;
19788;SDS011;10054;59.332;18.244;2023-06-04T10:59:15;0.47;;;0.47;;
19788;SDS011;10054;59.332;18.244;2023-06-04T11:01:45;0.53;;;0.53;;
19788;SDS011;10054;59.332;18.244;2023-06-04T11:04:26;0.53;;;0.53;;
19788;SDS011;10054;59.332;18.244;2023-06-04T11:07:01;0.67;;;0.50;;
19788;SDS011;10054;59.332;18.244;2023-06-04T11:09:31;0.60;;;0.60;;
19788;SDS011;10054;59.332;18.244;2023-06-04T11:12:00;1.53;;;0.40;;
19788;SDS011;10054;59.332;18.244;2023-06-04T11:14:29;0.50;;;0.50;;
19788;SDS011;10054;59.332;18.244;2023-06-04T11:17:08;1.73;;;0.60;;
19788;SDS011;10054;59.332;18.244;2023-06-04T11:19:38;1.37;;;0.63;;
19788;SDS011;10054;59.332;18.244;2023-06-04T11:22:11;0.50;;;0.50;;
19788;SDS011;10054;59.332;18.244;2023-06-04T11:24:40;0.50;;;0.50;;
19788;SDS011;10054;59.332;18.244;2023-06-04T11:27:09;0.50;;;0.50;;
19788;SDS011;10054;59.332;18.244;2023-06-04T11:29:38;0.53;;;0.53;;
19788;SDS011;10054;59.332;18.244;2023-06-04T11:32:08;0.60;;;0.60;;
19788;SDS011;10054;59.332;18.244;2023-06-04T11:34:36;0.60;;;0.60;;
19788;SDS011;10054;59.332;18.244;2023-06-04T11:37:09;0.50;;;0.50;;
19788;SDS011;10054;59.332;18.244;2023-06-04T11:39:38;0.53;;;0.50;;
19788;SDS011;10054;59.332;18.244;2023-06-04T11:42:07;0.57;;;0.57;;
19788;SDS011;10054;59.332;18.244;2023-06-04T11:44:36;0.60;;;0.60;;
19788;SDS011;10054;59.332;18.244;2023-06-04T11:47:08;3.40;;;0.93;;
19788;SDS011;10054;59.332;18.244;2023-06-04T11:49:37;3.33;;;0.70;;
19788;SDS011;10054;59.332;18.244;2023-06-04T11:52:05;0.80;;;0.60;;
19788;SDS011;10054;59.332;18.244;2023-06-04T11:54:35;0.60;;;0.60;;
19788;SDS011;10054;59.332;18.244;2023-06-04T11:57:04;0.70;;;0.70;;
19788;SDS011;10054;59.332;18.244;2023-06-04T11:59:33;1.50;;;0.60;;
19788;SDS011;10054;59.332;18.244;2023-06-04T12:02:03;0.50;;;0.50;;
19788;SDS011;10054;59.332;18.244;2023-06-04T12:04:33;0.73;;;0.60;;
19788;SDS011;10054;59.332;18.244;2023-06-04T12:07:02;0.70;;;0.70;;
19788;SDS011;10054;59.332;18.244;2023-06-04T12:09:32;0.50;;;0.50;;
19788;SDS011;10054;59.332;18.244;2023-06-04T12:12:02;0.70;;;0.70;;
19788;SDS011;10054;59.332;18.244;2023-06-04T12:14:33;0.60;;;0.60;;
19788;SDS011;10054;59.332;18.244;2023-06-04T12:17:05;0.50;;;0.50;;
19788;SDS011;10054;59.332;18.244;2023-06-04T12:19:46;0.50;;;0.50;;
19788;SDS011;10054;59.332;18.244;2023-06-04T12:22:16;0.60;;;0.60;;
19788;SDS011;10054;59.332;18.244;2023-06-04T12:24:49;0.63;;;0.60;;
19788;SDS011;10054;59.332;18.244;2023-06-04T12:27:27;0.57;;;0.57;;
19788;SDS011;10054;59.332;18.244;2023-06-04T12:30:00;0.60;;;0.60;;
19788;SDS011;10054;59.332;18.244;2023-06-04T12:32:30;0.50;;;0.50;;
19788;SDS011;10054;59.332;18.244;2023-06-04T12:35:03;1.07;;;0.77;;
19788;SDS011;10054;59.332;18.244;2023-06-04T12:37:32;0.93;;;0.60;;
19788;SDS011;10054;59.332;18.244;2023-06-04T12:40:01;0.40;;;0.40;;
19788;SDS011;10054;59.332;18.244;2023-06-04T12:42:34;0.50;;;0.40;;
19788;SDS011;10054;59.332;18.244;2023-06-04T12:45:03;0.60;;;0.60;;
19788;SDS011;10054;59.332;18.244;2023-06-04T12:47:32;0.40;;;0.40;;
19788;SDS011;10054;59.332;18.244;2023-06-04T12:50:01;0.60;;;0.60;;
19788;SDS011;10054;59.332;18.244;2023-06-04T12:52:30;0.60;;;0.60;;
19788;SDS011;10054;59.332;18.244;2023-06-04T12:54:58;0.50;;;0.50;;
19788;SDS011;10054;59.332;18.244;2023-06-04T12:57:27;0.50;;;0.50;;
19788;SDS011;10054;59.332;18.244;2023-06-04T12:59:56;0.50;;;0.50;;
19788;SDS011;10054;59.332;18.244;2023-06-04T13:02:24;0.50;;;0.50;;
19788;SDS011;10054;59.332;18.244;2023-06-04T13:04:53;0.50;;;0.50;;
19788;SDS011;10054;59.332;18.244;2023-06-04T13:07:22;0.70;;;0.70;;
19788;SDS011;10054;59.332;18.244;2023-06-04T13:09:51;1.27;;;0.50;;
19788;SDS011;10054;59.332;18.244;2023-06-04T13:12:20;0.73;;;0.63;;
19788;SDS011;10054;59.332;18.244;2023-06-04T13:14:48;0.93;;;0.60;;
19788;SDS011;10054;59.332;18.244;2023-06-04T13:17:18;0.60;;;0.60;;
19788;SDS011;10054;59.332;18.244;2023-06-04T13:19:46;0.60;;;0.60;;
19788;SDS011;10054;59.332;18.244;2023-06-04T13:22:15;0.50;;;0.50;;
19788;SDS011;10054;59.332;18.244;2023-06-04T13:24:44;1.70;;;0.60;;
19788;SDS011;10054;59.332;18.244;2023-06-04T13:27:13;0.40;;;0.40;;
19788;SDS011;10054;59.332;18.244;2023-06-04T13:29:42;0.50;;;0.50;;
19788;SDS011;10054;59.332;18.244;2023-06-04T13:32:11;1.50;;;0.67;;
19788;SDS011;10054;59.332;18.244;2023-06-04T13:34:40;0.60;;;0.60;;
19788;SDS011;10054;59.332;18.244;2023-06-04T13:37:08;0.50;;;0.50;;
19788;SDS011;10054;59.332;18.244;2023-06-04T13:39:39;0.60;;;0.60;;
19788;SDS011;10054;59.332;18.244;2023-06-04T13:42:07;0.50;;;0.50;;
19788;SDS011;10054;59.332;18.244;2023-06-04T13:44:37;0.50;;;0.50;;
19788;SDS011;10054;59.332;18.244;2023-06-04T13:47:06;0.60;;;0.60;;
19788;SDS011;10054;59.332;18.244;2023-06-04T13:49:34;0.50;;;0.50;;
19788;SDS011;10054;59.332;18.244;2023-06-04T13:52:03;0.77;;;0.50;;
19788;SDS011;10054;59.332;18.244;2023-06-04T13:54:32;0.50;;;0.50;;
19788;SDS011;10054;59.332;18.244;2023-06-04T13:57:01;0.60;;;0.60;;
19788;SDS011;10054;59.332;18.244;2023-06-04T13:59:31;0.73;;;0.50;;
19788;SDS011;10054;59.332;18.244;2023-06-04T14:01:59;0.50;;;0.50;;
19788;SDS011;10054;59.332;18.244;2023-06-04T14:04:28;0.60;;;0.60;;
19788;SDS011;10054;59.332;18.244;2023-06-04T14:06:57;1.90;;;0.75;;
19788;SDS011;10054;59.332;18.244;2023-06-04T14:09:26;0.80;;;0.60;;
19788;SDS011;10054;59.332;18.244;2023-06-04T14:11:55;0.70;;;0.70;;
19788;SDS011;10054;59.332;18.244;2023-06-04T14:14:24;0.60;;;0.60;;
19788;SDS011;10054;59.332;18.244;2023-06-04T14:16:53;0.90;;;0.60;;
19788;SDS011;10054;59.332;18.244;2023-06-04T14:19:22;1.13;;;0.60;;
19788;SDS011;10054;59.332;18.244;2023-06-04T14:21:51;0.50;;;0.50;;
19788;SDS011;10054;59.332;18.244;2023-06-04T14:24:19;0.53;;;0.53;;
19788;SDS011;10054;59.332;18.244;2023-06-04T14:26:48;0.50;;;0.50;;
19788;SDS011;10054;59.332;18.244;2023-06-04T14:29:17;0.68;;;0.57;;
19788;SDS011;10054;59.332;18.244;2023-06-04T14:31:46;2.35;;;0.50;;
19788;SDS011;10054;59.332;18.244;2023-06-04T14:34:15;1.00;;;0.65;;
19788;SDS011;10054;59.332;18.244;2023-06-04T14:36:45;0.60;;;0.60;;
19788;SDS011;10054;59.332;18.244;2023-06-04T14:39:14;0.50;;;0.50;;
19788;SDS011;10054;59.332;18.244;2023-06-04T14:41:43;0.60;;;0.60;;
19788;SDS011;10054;59.332;18.244;2023-06-04T14:44:12;0.50;;;0.50;;
19788;SDS011;10054;59.332;18.244;2023-06-04T14:46:40;0.60;;;0.60;;
19788;SDS011;10054;59.332;18.244;2023-06-04T14:49:09;3.45;;;0.70;;
19788;SDS011;10054;59.332;18.244;2023-06-04T14:51:38;0.60;;;0.60;;